Time;durP1;ratioP1;P1;durP2;ratioP2;P2;SDS_P1;SDS_P2;PMS_P1;PMS_P2;Temp;Humidity;BMP_temperature;BMP_pressure;BME280_temperature;BME280_humidity;BME280_pressure;Samples;Min_cycle;Max_cycle;Signal;HPM_P1;HPM_P2
2022/05/15 03:02:12;;;;;;;0.80;0.80;;;16.60;62.70;;;;;;5363083;23;20527;-74
2022/05/15 03:04:39;;;;;;;0.60;0.50;;;16.60;62.50;;;;;;4996845;28;20481;-74
2022/05/15 03:07:06;;;;;;;0.70;0.60;;;16.60;62.50;;;;;;4996742;28;20503;-74
2022/05/15 03:09:33;;;;;;;0.70;0.60;;;16.60;62.40;;;;;;4995947;28;20551;-74
2022/05/15 03:12:00;;;;;;;0.73;0.70;;;16.60;62.50;;;;;;4995565;28;20469;-74
2022/05/15 03:17:02;;;;;;;0.70;0.60;;;16.60;62.80;;;;;;5008485;23;20500;-71
2022/05/15 03:19:31;;;;;;;0.70;0.60;;;16.60;62.90;;;;;;4992593;28;20500;-70
2022/05/15 03:21:57;;;;;;;0.70;0.63;;;16.60;62.90;;;;;;4992599;28;20441;-71
2022/05/15 03:24:24;;;;;;;0.67;0.60;;;16.50;62.60;;;;;;4992495;28;20448;-71
2022/05/15 03:26:51;;;;;;;0.80;0.73;;;16.50;63.00;;;;;;4973167;28;20453;-71
2022/05/15 03:29:20;;;;;;;0.70;0.60;;;16.40;63.20;;;;;;4972730;28;20941;-71
2022/05/15 03:31:47;;;;;;;0.80;0.60;;;16.40;63.30;;;;;;4972771;28;20942;-70
2022/05/15 03:34:16;;;;;;;0.70;0.60;;;16.30;63.10;;;;;;4973091;28;20450;-71
2022/05/15 03:36:46;;;;;;;0.70;0.60;;;16.30;62.80;;;;;;4972926;28;20462;-70
2022/05/15 03:39:14;;;;;;;0.80;0.70;;;16.30;62.80;;;;;;4972610;28;20517;-70
2022/05/15 03:41:41;;;;;;;0.63;0.60;;;16.30;62.50;;;;;;4973171;28;20525;-71
2022/05/15 03:44:09;;;;;;;0.70;0.60;;;16.30;62.20;;;;;;4972818;28;20450;-70
2022/05/15 03:46:36;;;;;;;0.67;0.57;;;16.30;62.40;;;;;;4972733;28;20907;-70
2022/05/15 03:49:03;;;;;;;0.70;0.60;;;16.30;62.00;;;;;;4972835;28;20446;-71
2022/05/15 03:51:30;;;;;;;0.70;0.60;;;16.30;62.10;;;;;;4972541;28;20872;-69
2022/05/15 03:53:58;;;;;;;0.60;0.50;;;16.20;62.40;;;;;;4975844;28;20938;-71
2022/05/15 03:59:06;;;;;;;0.70;0.63;;;16.20;62.40;;;;;;4975551;28;20533;-71
2022/05/15 04:01:32;;;;;;;0.70;0.60;;;16.20;62.00;;;;;;4976053;28;20524;-69
2022/05/15 04:03:59;;;;;;;0.70;0.60;;;16.20;62.40;;;;;;4975729;28;20449;-71
2022/05/15 04:06:27;;;;;;;0.70;0.60;;;16.10;62.30;;;;;;4975544;28;20486;-69
2022/05/15 04:08:54;;;;;;;0.70;0.60;;;16.10;62.50;;;;;;4975934;28;20450;-69
2022/05/15 04:11:22;;;;;;;0.70;0.60;;;16.20;62.70;;;;;;4975918;28;20485;-69
2022/05/15 04:13:48;;;;;;;0.70;0.60;;;16.20;62.50;;;;;;4975835;28;20484;-69
2022/05/15 04:16:15;;;;;;;0.70;0.60;;;16.20;62.70;;;;;;4940986;28;1019989;-69
2022/05/15 04:18:42;;;;;;;0.83;0.60;;;16.20;62.60;;;;;;4976942;28;20241;-69
2022/05/15 04:21:10;;;;;;;0.70;0.63;;;16.30;62.80;;;;;;4976892;28;20450;-69
2022/05/15 04:23:37;;;;;;;0.70;0.60;;;16.40;63.00;;;;;;4976770;28;20457;-69
2022/05/15 04:26:03;;;;;;;0.70;0.57;;;16.40;62.90;;;;;;4976344;28;21052;-69
2022/05/15 04:28:31;;;;;;;0.70;0.60;;;16.50;63.30;;;;;;4976473;28;20450;-69
2022/05/15 04:30:58;;;;;;;0.70;0.63;;;16.50;63.30;;;;;;4976742;28;20500;-69
2022/05/15 04:33:25;;;;;;;0.70;0.60;;;16.60;63.40;;;;;;4976722;28;20500;-69
2022/05/15 04:35:52;;;;;;;0.87;0.70;;;16.70;63.70;;;;;;4976431;28;20497;-69
2022/05/15 04:38:18;;;;;;;0.70;0.60;;;16.70;63.90;;;;;;4976500;28;20497;-69
2022/05/15 04:40:45;;;;;;;1.17;1.07;;;16.80;64.10;;;;;;4976475;28;20450;-69
2022/05/15 04:43:11;;;;;;;0.67;0.60;;;16.80;64.10;;;;;;4976414;28;20509;-71
2022/05/15 04:45:39;;;;;;;0.70;0.63;;;16.90;64.10;;;;;;4976229;28;20494;-69
2022/05/15 04:48:09;;;;;;;0.70;0.70;;;17.00;63.70;;;;;;4976213;28;20454;-69
2022/05/15 04:50:37;;;;;;;0.70;0.70;;;17.00;63.80;;;;;;4976390;28;20450;-69
2022/05/15 04:53:04;;;;;;;0.77;0.77;;;17.10;63.80;;;;;;4976688;28;20450;-69
2022/05/15 04:55:30;;;;;;;0.70;0.60;;;17.20;63.90;;;;;;4977102;28;20524;-70
2022/05/15 04:57:57;;;;;;;0.70;0.63;;;17.30;64.10;;;;;;4976083;28;20503;-69
2022/05/15 05:00:24;;;;;;;1.63;0.83;;;17.40;64.20;;;;;;4976224;28;20454;-69
2022/05/15 05:02:52;;;;;;;1.10;1.00;;;17.50;64.20;;;;;;4975832;28;20485;-69
2022/05/15 05:05:19;;;;;;;0.83;0.83;;;17.60;64.10;;;;;;4975244;28;20486;-69
2022/05/15 05:07:45;;;;;;;0.70;0.70;;;17.70;63.70;;;;;;4976197;28;20454;-69
2022/05/15 05:10:14;;;;;;;1.00;0.90;;;17.80;63.50;;;;;;4975778;28;20450;-70
2022/05/15 05:12:40;;;;;;;0.80;0.80;;;17.90;62.40;;;;;;4976027;28;20517;-71
2022/05/15 05:15:09;;;;;;;0.80;0.80;;;18.00;61.30;;;;;;4975880;28;20488;-70
2022/05/15 05:17:36;;;;;;;0.90;0.90;;;18.00;60.70;;;;;;4976962;28;20913;-71
2022/05/15 05:20:06;;;;;;;0.70;0.60;;;18.10;59.90;;;;;;4977014;28;20454;-70
2022/05/15 05:22:32;;;;;;;0.70;0.70;;;18.20;60.10;;;;;;4976874;28;20839;-71
2022/05/15 05:24:59;;;;;;;0.80;0.70;;;18.30;59.60;;;;;;4976852;28;20473;-70
2022/05/15 05:27:26;;;;;;;0.97;0.80;;;18.20;59.80;;;;;;4977184;28;20551;-70
2022/05/15 05:29:53;;;;;;;0.80;0.77;;;18.40;59.80;;;;;;4977102;28;20548;-71
2022/05/15 05:32:20;;;;;;;0.70;0.60;;;18.30;59.50;;;;;;4977087;28;20505;-69
2022/05/15 05:34:46;;;;;;;0.80;0.80;;;18.30;58.80;;;;;;4976947;28;20508;-69
2022/05/15 05:37:17;;;;;;;0.80;0.73;;;18.10;59.70;;;;;;4976655;28;20799;-71
2022/05/15 05:39:44;;;;;;;0.80;0.80;;;18.00;59.60;;;;;;4977067;28;20449;-70
2022/05/15 05:42:11;;;;;;;0.70;0.70;;;18.20;60.40;;;;;;4976863;28;20466;-71
2022/05/15 05:44:38;;;;;;;0.70;0.63;;;18.40;59.60;;;;;;4976761;28;20529;-71
2022/05/15 05:47:05;;;;;;;0.60;0.60;;;18.40;58.60;;;;;;4976680;28;20556;-70
2022/05/15 05:49:32;;;;;;;0.80;0.80;;;18.50;58.90;;;;;;4976538;28;20969;-71
2022/05/15 05:51:58;;;;;;;0.77;0.77;;;18.80;58.70;;;;;;4977044;28;20509;-70
2022/05/15 05:54:27;;;;;;;0.90;0.70;;;19.20;58.70;;;;;;4977293;28;20493;-71
2022/05/15 05:56:54;;;;;;;0.70;0.70;;;19.50;58.70;;;;;;4977260;28;20458;-71
2022/05/15 05:59:21;;;;;;;0.70;0.70;;;19.80;57.50;;;;;;4977290;28;20446;-70
2022/05/15 06:01:48;;;;;;;0.67;0.67;;;19.90;56.40;;;;;;4976622;28;20492;-71
2022/05/15 06:06:59;;;;;;;0.70;0.70;;;20.10;56.90;;;;;;4975834;28;20540;-70
2022/05/15 06:09:27;;;;;;;0.70;0.70;;;20.10;57.40;;;;;;4975751;28;20513;-71
2022/05/15 06:11:54;;;;;;;0.70;0.70;;;20.20;58.50;;;;;;4975705;28;20461;-71
2022/05/15 06:14:20;;;;;;;1.13;0.60;;;20.20;57.60;;;;;;4975628;28;21009;-72
2022/05/15 06:16:47;;;;;;;0.70;0.70;;;20.30;58.40;;;;;;4975259;28;20520;-71
2022/05/15 06:19:14;;;;;;;1.23;0.70;;;20.10;57.10;;;;;;4975694;28;20450;-71
2022/05/15 06:21:40;;;;;;;0.70;0.70;;;20.30;56.90;;;;;;4974820;28;20501;-71
2022/05/15 06:24:08;;;;;;;0.80;0.70;;;20.40;57.20;;;;;;4975539;28;20458;-70
2022/05/15 06:26:36;;;;;;;0.70;0.70;;;20.50;57.20;;;;;;4974600;28;20502;-70
2022/05/15 06:29:03;;;;;;;0.70;0.60;;;20.40;54.90;;;;;;4974680;28;20450;-71
2022/05/15 06:31:29;;;;;;;1.30;0.70;;;20.30;56.70;;;;;;4974719;28;20508;-70
2022/05/15 06:33:56;;;;;;;0.87;0.80;;;20.20;55.60;;;;;;4974638;28;20509;-70
2022/05/15 06:36:23;;;;;;;2.70;0.80;;;19.90;58.50;;;;;;4974471;28;20479;-70
2022/05/15 06:38:49;;;;;;;0.70;0.70;;;19.90;59.10;;;;;;4974555;28;20446;-70
2022/05/15 06:41:17;;;;;;;0.80;0.70;;;20.30;61.10;;;;;;4974574;28;20450;-71
2022/05/15 06:43:45;;;;;;;0.70;0.70;;;20.70;59.60;;;;;;4975051;28;20464;-71
2022/05/15 06:46:12;;;;;;;0.70;0.60;;;21.10;57.00;;;;;;4974285;28;20493;-72
2022/05/15 06:48:40;;;;;;;0.87;0.70;;;21.30;55.70;;;;;;4974456;28;20450;-71
2022/05/15 06:51:07;;;;;;;0.70;0.60;;;21.60;54.50;;;;;;4974448;28;20548;-71
2022/05/15 06:53:34;;;;;;;0.70;0.70;;;21.50;53.40;;;;;;4974405;28;20450;-71
2022/05/15 06:58:46;;;;;;;1.47;0.70;;;21.70;54.00;;;;;;4974406;28;20414;-70
2022/05/15 07:01:13;;;;;;;0.70;0.70;;;21.50;54.80;;;;;;4974486;28;20450;-72
2022/05/15 07:03:40;;;;;;;0.70;0.60;;;21.50;56.00;;;;;;4974263;28;20526;-71
2022/05/15 07:06:07;;;;;;;0.70;0.60;;;21.90;56.10;;;;;;4973778;28;20544;-71
2022/05/15 07:08:34;;;;;;;0.70;0.60;;;21.90;55.00;;;;;;4974335;28;20467;-70
2022/05/15 07:11:00;;;;;;;0.70;0.60;;;22.10;55.30;;;;;;4974731;28;20826;-70
2022/05/15 07:13:27;;;;;;;0.70;0.60;;;21.80;56.10;;;;;;4973873;28;20454;-70
2022/05/15 07:15:56;;;;;;;0.80;0.60;;;22.00;56.90;;;;;;4973798;28;20510;-72
2022/05/15 07:18:23;;;;;;;0.70;0.60;;;22.30;55.00;;;;;;4973943;28;20438;-70
2022/05/15 07:20:51;;;;;;;0.60;0.60;;;22.50;55.80;;;;;;4973850;28;20957;-71
2022/05/15 07:23:18;;;;;;;0.70;0.70;;;22.70;53.70;;;;;;4973740;28;20932;-70
2022/05/15 07:25:45;;;;;;;0.80;0.67;;;22.40;52.00;;;;;;4973944;28;20547;-72
2022/05/15 07:28:11;;;;;;;0.60;0.50;;;22.10;53.40;;;;;;4976812;28;20458;-72
2022/05/15 07:30:38;;;;;;;0.80;0.70;;;22.10;54.40;;;;;;4977618;28;20929;-72
2022/05/15 07:33:07;;;;;;;0.70;0.60;;;22.20;54.30;;;;;;4977935;28;20446;-70
2022/05/15 07:35:34;;;;;;;0.70;0.60;;;22.30;53.10;;;;;;4977826;28;20577;-70
2022/05/15 07:38:00;;;;;;;0.70;0.70;;;22.70;54.30;;;;;;4977753;28;20532;-71
2022/05/15 07:40:28;;;;;;;0.70;0.60;;;23.00;52.60;;;;;;4977677;28;20489;-70
2022/05/15 07:42:55;;;;;;;0.60;0.60;;;23.00;52.60;;;;;;4977345;28;20457;-71
2022/05/15 07:45:21;;;;;;;0.90;0.60;;;23.20;53.50;;;;;;4977661;28;20522;-72
2022/05/15 07:47:48;;;;;;;0.70;0.60;;;23.40;52.60;;;;;;4977446;28;20488;-71
2022/05/15 07:50:16;;;;;;;0.70;0.70;;;23.50;52.70;;;;;;4977641;28;20857;-72
2022/05/15 07:52:43;;;;;;;0.70;0.53;;;23.70;51.80;;;;;;4977282;28;21154;-72
2022/05/15 07:55:10;;;;;;;0.70;0.60;;;23.70;52.80;;;;;;4977276;28;20532;-72
2022/05/15 07:57:36;;;;;;;0.60;0.60;;;23.70;51.50;;;;;;4977322;28;20450;-70
2022/05/15 08:00:06;;;;;;;0.80;0.70;;;24.00;52.70;;;;;;4977138;28;20454;-71
2022/05/15 08:02:33;;;;;;;0.70;0.50;;;24.40;51.00;;;;;;4977287;28;20466;-72
2022/05/15 08:08:03;;;;;;;0.70;0.60;;;24.10;50.20;;;;;;4977118;28;20465;-71
2022/05/15 08:10:32;;;;;;;0.70;0.50;;;24.00;51.90;;;;;;4977224;28;20434;-71
2022/05/15 08:12:59;;;;;;;0.80;0.67;;;23.60;52.40;;;;;;4977114;28;20516;-72
2022/05/15 08:15:26;;;;;;;0.70;0.60;;;23.20;53.50;;;;;;4976891;28;20540;-72
2022/05/15 08:17:53;;;;;;;0.70;0.70;;;23.10;53.10;;;;;;4976738;28;20938;-70
2022/05/15 08:25:50;;;;;;;0.70;0.60;;;23.60;51.60;;;;;;4976809;28;20452;-70
2022/05/15 08:28:17;;;;;;;0.67;0.53;;;23.70;52.90;;;;;;4976798;28;20817;-72
2022/05/15 08:30:44;;;;;;;1.23;0.70;;;23.60;53.10;;;;;;4977681;28;20504;-71
2022/05/15 08:33:12;;;;;;;0.70;0.67;;;23.50;51.70;;;;;;4976784;28;20456;-71
2022/05/15 08:35:39;;;;;;;0.70;0.63;;;23.50;53.00;;;;;;4976708;28;20490;-71
2022/05/15 08:38:08;;;;;;;0.70;0.70;;;23.40;52.70;;;;;;4976329;28;21037;-70
2022/05/15 08:40:44;;;;;;;0.60;0.50;;;23.40;53.50;;;;;;4976601;28;20508;-71
2022/05/15 08:43:11;;;;;;;0.80;0.60;;;23.60;53.80;;;;;;4977103;28;20465;-71
2022/05/15 08:45:43;;;;;;;0.70;0.60;;;24.00;53.10;;;;;;4976907;28;20524;-72
2022/05/15 08:48:13;;;;;;;0.80;0.80;;;23.80;51.30;;;;;;4976376;28;20473;-72
2022/05/15 08:50:46;;;;;;;0.70;0.60;;;23.60;53.50;;;;;;4976675;28;20436;-72
2022/05/15 08:53:19;;;;;;;0.70;0.70;;;23.80;52.60;;;;;;4976439;28;20430;-71
2022/05/15 08:55:50;;;;;;;0.70;0.60;;;24.20;52.80;;;;;;4976712;28;20501;-72
2022/05/15 08:58:22;;;;;;;0.70;0.60;;;24.30;50.80;;;;;;4975995;28;20454;-71
2022/05/15 09:00:52;;;;;;;0.83;0.70;;;24.20;50.30;;;;;;4976287;28;20505;-70
2022/05/15 09:03:21;;;;;;;0.70;0.60;;;24.10;51.30;;;;;;4976145;28;20449;-72
2022/05/15 09:05:54;;;;;;;0.70;0.60;;;23.80;50.60;;;;;;4975974;28;20505;-71
2022/05/15 09:08:55;;;;;;;0.80;0.60;;;23.80;52.60;;;;;;4976085;28;20553;-70
2022/05/15 09:11:45;;;;;;;0.70;0.60;;;24.20;54.10;;;;;;4975778;28;20992;-71
2022/05/15 09:14:15;;;;;;;0.60;0.50;;;24.50;51.30;;;;;;4975618;28;21012;-71
2022/05/15 09:16:54;;;;;;;0.63;0.60;;;24.30;50.30;;;;;;4976740;28;20982;-70
2022/05/15 09:19:21;;;;;;;0.83;0.60;;;24.10;50.80;;;;;;4976006;28;20434;-72
2022/05/15 09:21:47;;;;;;;1.03;0.60;;;24.20;50.00;;;;;;4979078;28;20453;-71
2022/05/15 09:24:29;;;;;;;0.70;0.70;;;24.40;49.60;;;;;;4986631;28;20517;-71
2022/05/15 09:27:10;;;;;;;0.80;0.70;;;24.50;51.70;;;;;;4978151;28;20476;-71
2022/05/15 09:29:37;;;;;;;1.00;0.80;;;24.80;50.90;;;;;;4975847;28;20438;-70
2022/05/15 09:32:06;;;;;;;0.70;0.60;;;24.90;51.80;;;;;;4976415;28;20808;-72
2022/05/15 09:34:35;;;;;;;1.00;0.70;;;25.10;49.90;;;;;;4975516;28;20536;-72
2022/05/15 09:39:48;;;;;;;0.73;0.70;;;25.60;48.30;;;;;;4975019;28;20446;-71
2022/05/15 09:45:21;;;;;;;1.03;0.70;;;26.30;48.60;;;;;;4975301;28;20861;-72
2022/05/15 09:48:03;;;;;;;0.70;0.60;;;26.10;48.90;;;;;;4975277;28;20477;-71
2022/05/15 09:50:57;;;;;;;0.70;0.60;;;25.70;47.20;;;;;;4974893;28;20488;-72
2022/05/15 09:53:27;;;;;;;0.80;0.70;;;25.90;47.90;;;;;;4975276;28;20492;-71
2022/05/15 09:56:00;;;;;;;0.70;0.60;;;26.30;47.20;;;;;;4974832;28;20520;-72
2022/05/15 09:58:27;;;;;;;0.60;0.50;;;26.40;48.50;;;;;;4975289;28;20449;-71
2022/05/15 10:01:24;;;;;;;0.70;0.60;;;26.30;47.90;;;;;;4975065;28;20450;-72
2022/05/15 10:03:53;;;;;;;0.60;0.50;;;26.40;48.60;;;;;;4974696;28;20946;-70
2022/05/15 10:06:22;;;;;;;0.60;0.50;;;26.40;46.00;;;;;;4974855;28;20477;-71
2022/05/15 10:09:05;;;;;;;0.67;0.60;;;26.20;46.70;;;;;;4974550;28;20918;-71
2022/05/15 10:11:35;;;;;;;0.60;0.50;;;26.10;48.20;;;;;;4975093;28;20438;-77
2022/05/15 10:14:03;;;;;;;0.60;0.50;;;25.90;48.70;;;;;;4974955;28;20533;-72
2022/05/15 10:16:32;;;;;;;0.60;0.50;;;26.00;50.90;;;;;;4975081;28;20481;-73
2022/05/15 10:19:03;;;;;;;0.70;0.53;;;25.80;47.50;;;;;;4979820;28;20465;-72
2022/05/15 10:21:35;;;;;;;0.80;0.60;;;25.70;47.50;;;;;;4975386;28;20521;-74
2022/05/15 10:24:05;;;;;;;0.90;0.60;;;25.50;48.20;;;;;;4975082;28;20438;-76
2022/05/15 10:26:42;;;;;;;0.60;0.50;;;25.50;48.70;;;;;;4974831;28;20586;-73
2022/05/15 10:29:17;;;;;;;0.80;0.60;;;25.40;50.10;;;;;;4975046;28;20918;-75
2022/05/15 10:31:49;;;;;;;0.60;0.50;;;25.80;47.00;;;;;;4975105;28;20493;-73
2022/05/15 10:34:23;;;;;;;0.60;0.60;;;25.60;48.20;;;;;;4974448;28;20462;-73
2022/05/15 10:37:04;;;;;;;0.60;0.60;;;25.50;47.30;;;;;;4974415;28;20571;-73
2022/05/15 10:39:41;;;;;;;0.60;0.53;;;25.40;47.70;;;;;;4974558;28;20442;-72
2022/05/15 10:42:20;;;;;;;0.73;0.60;;;25.70;49.90;;;;;;4974353;28;20438;-73
2022/05/15 10:44:57;;;;;;;0.70;0.50;;;25.90;47.70;;;;;;4974654;28;20556;-73
2022/05/15 10:47:28;;;;;;;0.70;0.60;;;26.00;48.00;;;;;;4976490;28;20524;-73
2022/05/15 10:50:12;;;;;;;0.77;0.60;;;26.00;46.80;;;;;;4975261;28;20439;-73
2022/05/15 10:52:51;;;;;;;0.70;0.50;;;25.90;46.30;;;;;;4975255;28;20510;-73
2022/05/15 10:58:18;;;;;;;0.60;0.50;;;26.00;47.70;;;;;;4974398;28;20779;-72
2022/05/15 11:00:55;;;;;;;0.63;0.60;;;26.20;47.90;;;;;;4974329;28;20529;-73
2022/05/15 11:03:50;;;;;;;0.70;0.60;;;26.50;46.50;;;;;;4974329;28;20489;-73
2022/05/15 11:06:33;;;;;;;0.70;0.50;;;26.60;45.40;;;;;;4971267;28;20486;-74
2022/05/15 11:09:08;;;;;;;0.70;0.60;;;26.80;46.60;;;;;;4974964;28;20987;-74
2022/05/15 11:11:49;;;;;;;0.70;0.60;;;26.70;46.20;;;;;;4975143;28;20435;-73
2022/05/15 11:14:22;;;;;;;0.60;0.60;;;26.60;46.30;;;;;;4975431;28;20777;-73
2022/05/15 11:17:02;;;;;;;0.70;0.60;;;26.40;46.10;;;;;;4974959;28;20477;-74
2022/05/15 11:19:35;;;;;;;0.60;0.50;;;26.60;48.30;;;;;;4974863;28;20442;-73
2022/05/15 11:22:12;;;;;;;0.80;0.57;;;27.00;47.00;;;;;;4975143;28;20521;-73
2022/05/15 11:24:43;;;;;;;0.70;0.60;;;26.80;44.80;;;;;;4974270;28;20440;-74
2022/05/15 11:27:16;;;;;;;1.00;0.60;;;26.40;46.90;;;;;;4974564;28;20529;-73
2022/05/15 11:29:50;;;;;;;0.60;0.53;;;26.40;46.50;;;;;;4974109;28;20434;-73
2022/05/15 11:32:40;;;;;;;0.70;0.60;;;26.60;45.90;;;;;;4973879;28;20430;-73
2022/05/15 11:35:24;;;;;;;0.70;0.60;;;26.80;47.50;;;;;;4973955;28;20481;-74
2022/05/15 11:38:04;;;;;;;0.70;0.60;;;26.70;45.10;;;;;;4974015;28;20466;-74
2022/05/15 11:40:35;;;;;;;0.60;0.60;;;26.90;46.40;;;;;;4973993;28;20518;-74
2022/05/15 11:43:34;;;;;;;0.60;0.50;;;26.80;44.50;;;;;;4973899;28;20434;-73
2022/05/15 11:46:04;;;;;;;0.70;0.60;;;26.90;45.80;;;;;;4973976;28;20477;-72
2022/05/15 11:48:32;;;;;;;0.60;0.50;;;27.00;46.10;;;;;;4973699;28;20826;-73
2022/05/15 11:51:04;;;;;;;0.60;0.60;;;26.80;44.50;;;;;;4973730;28;20449;-73
2022/05/15 11:53:33;;;;;;;0.70;0.60;;;26.90;44.80;;;;;;4973978;28;20439;-73
2022/05/15 11:56:20;;;;;;;0.80;0.50;;;26.80;46.90;;;;;;4973722;28;20520;-73
2022/05/15 11:58:53;;;;;;;0.60;0.50;;;26.80;46.00;;;;;;4973435;28;20857;-73
2022/05/15 12:01:46;;;;;;;0.67;0.60;;;27.20;46.70;;;;;;4973332;28;20857;-74
2022/05/15 12:04:35;;;;;;;0.80;0.60;;;27.60;45.60;;;;;;4973292;28;20873;-73
2022/05/15 12:07:49;;;;;;;0.70;0.60;;;27.70;45.20;;;;;;4973030;28;20449;-72
2022/05/15 12:10:22;;;;;;;0.60;0.57;;;27.50;45.30;;;;;;4973382;28;20929;-73
2022/05/15 12:13:08;;;;;;;1.20;0.60;;;27.20;45.50;;;;;;4973892;28;20429;-73
2022/05/15 12:15:39;;;;;;;0.70;0.63;;;27.40;46.10;;;;;;4976712;28;21138;-74
2022/05/15 12:18:26;;;;;;;0.60;0.53;;;27.60;46.00;;;;;;4977111;28;20434;-74
2022/05/15 12:20:54;;;;;;;1.23;1.00;;;27.60;44.60;;;;;;4976895;28;20489;-73
2022/05/15 12:23:23;;;;;;;0.70;0.50;;;27.90;44.60;;;;;;4977011;28;20457;-74
2022/05/15 12:25:58;;;;;;;0.60;0.50;;;27.90;44.20;;;;;;4976819;28;20469;-74
2022/05/15 12:28:54;;;;;;;0.70;0.50;;;27.60;43.90;;;;;;4977777;28;20772;-74
2022/05/15 12:31:28;;;;;;;0.70;0.60;;;27.80;44.30;;;;;;4976667;28;20972;-73
2022/05/15 12:33:57;;;;;;;1.47;0.60;;;28.00;44.30;;;;;;4976520;28;20435;-73
2022/05/15 12:36:33;;;;;;;0.70;0.60;;;28.30;43.30;;;;;;4976130;28;20953;-73
2022/05/15 12:39:01;;;;;;;0.60;0.50;;;28.10;45.10;;;;;;4976510;28;20481;-73
2022/05/15 12:41:35;;;;;;;0.70;0.60;;;27.90;43.00;;;;;;4976902;28;20540;-73
2022/05/15 12:44:03;;;;;;;0.70;0.60;;;27.80;45.00;;;;;;4976524;28;20435;-74
2022/05/15 12:46:34;;;;;;;0.87;0.77;;;27.70;44.40;;;;;;4976650;28;20466;-74
2022/05/15 12:49:03;;;;;;;0.70;0.60;;;27.70;44.70;;;;;;4976545;28;20474;-73
2022/05/15 12:51:32;;;;;;;0.80;0.70;;;28.00;44.30;;;;;;4976583;28;20449;-73
2022/05/15 12:54:00;;;;;;;0.70;0.50;;;27.70;44.40;;;;;;4976364;28;20814;-74
2022/05/15 12:56:30;;;;;;;0.70;0.50;;;27.50;42.90;;;;;;4976202;28;20473;-74
2022/05/15 12:58:59;;;;;;;0.60;0.50;;;27.80;43.60;;;;;;4976495;28;20450;-73
2022/05/15 13:01:29;;;;;;;0.70;0.60;;;27.80;42.70;;;;;;4975791;28;21052;-73
2022/05/15 13:03:58;;;;;;;0.60;0.60;;;27.70;43.40;;;;;;4976106;28;20612;-74
2022/05/15 13:06:33;;;;;;;0.70;0.50;;;27.90;44.50;;;;;;4976273;28;20470;-73
2022/05/15 13:09:03;;;;;;;0.60;0.60;;;27.80;43.70;;;;;;4975710;28;20885;-74
2022/05/15 13:11:38;;;;;;;0.70;0.50;;;27.80;43.70;;;;;;4975801;28;20510;-74
2022/05/15 13:14:10;;;;;;;0.70;0.60;;;27.60;43.40;;;;;;4975896;28;20517;-73
2022/05/15 13:16:42;;;;;;;0.70;0.60;;;27.30;43.60;;;;;;4975479;28;20482;-73
2022/05/15 13:19:13;;;;;;;0.63;0.60;;;27.30;44.50;;;;;;4975859;28;20489;-73
2022/05/15 13:21:46;;;;;;;0.70;0.57;;;27.70;44.80;;;;;;4975776;28;20438;-73
2022/05/15 13:24:15;;;;;;;0.70;0.50;;;27.80;44.20;;;;;;4975082;28;20441;-73
2022/05/15 13:26:44;;;;;;;0.70;0.60;;;27.80;45.20;;;;;;4974991;28;21102;-73
2022/05/15 13:29:15;;;;;;;0.70;0.60;;;28.20;44.20;;;;;;4975675;28;20893;-74
2022/05/15 13:31:43;;;;;;;0.70;0.60;;;28.20;43.20;;;;;;4976216;28;20506;-73
2022/05/15 13:34:12;;;;;;;0.70;0.60;;;28.00;43.20;;;;;;4975479;28;20452;-74
2022/05/15 13:36:51;;;;;;;0.77;0.63;;;28.00;44.10;;;;;;4975365;28;20577;-73
2022/05/15 13:44:51;;;;;;;0.63;0.53;;;28.10;42.70;;;;;;4974937;28;20445;-75
2022/05/15 13:47:18;;;;;;;0.77;0.67;;;28.00;43.30;;;;;;4974998;28;20609;-73
2022/05/15 13:49:49;;;;;;;0.60;0.53;;;28.00;43.30;;;;;;4975198;28;20481;-74
2022/05/15 13:52:39;;;;;;;0.77;0.70;;;27.90;43.90;;;;;;4975164;28;20438;-74
2022/05/15 13:55:08;;;;;;;0.90;0.60;;;27.90;44.00;;;;;;4972146;28;20572;-74
2022/05/15 13:57:51;;;;;;;0.60;0.60;;;28.40;43.60;;;;;;4975359;28;20446;-75
2022/05/15 14:00:26;;;;;;;0.60;0.60;;;28.70;43.40;;;;;;4974687;28;20848;-75
2022/05/15 14:02:59;;;;;;;0.70;0.60;;;28.50;42.80;;;;;;4974889;28;20914;-74
2022/05/15 14:05:27;;;;;;;0.60;0.50;;;28.10;42.70;;;;;;4975330;28;20645;-73
2022/05/15 14:08:09;;;;;;;0.70;0.60;;;28.00;43.00;;;;;;4975022;28;20482;-73
2022/05/15 14:10:37;;;;;;;0.87;0.67;;;28.10;43.00;;;;;;4975507;28;20426;-73
2022/05/15 14:13:06;;;;;;;0.60;0.60;;;28.10;43.30;;;;;;4975247;28;20456;-74
2022/05/15 14:15:40;;;;;;;0.60;0.60;;;28.10;42.90;;;;;;4974647;28;20482;-74
2022/05/15 14:18:10;;;;;;;1.00;0.57;;;28.40;43.70;;;;;;4974767;28;20434;-75
2022/05/15 14:20:41;;;;;;;0.60;0.50;;;28.70;42.10;;;;;;4974480;28;20992;-73
2022/05/15 14:23:10;;;;;;;0.60;0.60;;;28.70;42.80;;;;;;4974326;28;20443;-73
2022/05/15 14:25:40;;;;;;;0.67;0.60;;;28.60;42.30;;;;;;4974246;28;21060;-72
2022/05/15 14:28:07;;;;;;;0.70;0.60;;;28.50;42.00;;;;;;4974596;28;20512;-73
2022/05/15 14:30:33;;;;;;;0.80;0.60;;;28.40;41.80;;;;;;4974420;28;21000;-75
2022/05/15 14:33:03;;;;;;;0.80;0.80;;;28.70;42.80;;;;;;4974386;28;20453;-73
2022/05/15 14:35:35;;;;;;;0.90;0.60;;;28.40;42.80;;;;;;4974135;28;20987;-74
2022/05/15 14:38:02;;;;;;;0.60;0.50;;;28.30;43.00;;;;;;4974272;28;20906;-75
2022/05/15 14:40:30;;;;;;;0.70;0.60;;;28.40;42.50;;;;;;4974421;28;20458;-73
2022/05/15 14:42:57;;;;;;;0.70;0.70;;;28.50;41.90;;;;;;4974463;28;20454;-73
2022/05/15 14:45:24;;;;;;;0.70;0.60;;;28.70;41.60;;;;;;4974311;28;20474;-74
2022/05/15 14:47:55;;;;;;;0.60;0.50;;;28.80;41.80;;;;;;4974529;28;20445;-74
2022/05/15 14:50:23;;;;;;;0.80;0.70;;;29.10;41.50;;;;;;4974367;28;20480;-73
2022/05/15 14:52:52;;;;;;;0.60;0.50;;;29.20;41.80;;;;;;4974288;28;20456;-75
2022/05/15 14:58:14;;;;;;;1.00;0.80;;;29.10;41.40;;;;;;4972702;28;20534;-74
2022/05/15 15:00:41;;;;;;;0.77;0.60;;;29.50;41.30;;;;;;4975311;28;20431;-78
2022/05/15 15:03:09;;;;;;;0.70;0.60;;;29.30;40.10;;;;;;4974794;28;20450;-73
2022/05/15 15:05:45;;;;;;;0.90;0.60;;;29.10;40.40;;;;;;4974278;28;20469;-75
2022/05/15 15:08:12;;;;;;;0.70;0.60;;;29.40;39.10;;;;;;4974208;28;20473;-75
2022/05/15 15:10:39;;;;;;;0.73;0.60;;;29.50;40.60;;;;;;4974410;28;20442;-74
2022/05/15 15:13:07;;;;;;;0.70;0.60;;;29.90;40.40;;;;;;4974180;28;20453;-74
2022/05/15 15:15:36;;;;;;;0.70;0.60;;;30.00;39.60;;;;;;5098854;23;20487;-75
2022/05/15 15:18:03;;;;;;;0.60;0.60;;;30.00;39.90;;;;;;4994041;28;20437;-75
2022/05/15 15:20:30;;;;;;;0.60;0.60;;;30.10;39.80;;;;;;4993930;28;20855;-75
2022/05/15 15:22:57;;;;;;;0.70;0.60;;;29.90;40.90;;;;;;4994053;28;20448;-75
2022/05/15 15:25:24;;;;;;;0.60;0.60;;;29.60;40.10;;;;;;4993993;28;20472;-75
2022/05/15 15:27:51;;;;;;;0.70;0.50;;;29.10;40.10;;;;;;4994040;28;20511;-75
2022/05/15 15:30:18;;;;;;;0.70;0.60;;;28.80;41.00;;;;;;4994770;28;20484;-75
2022/05/15 15:32:46;;;;;;;0.70;0.53;;;28.80;41.90;;;;;;5003891;28;20449;-76
2022/05/15 15:35:13;;;;;;;0.80;0.60;;;29.20;41.40;;;;;;5003607;28;20473;-77
2022/05/15 15:40:27;;;;;;;0.80;0.60;;;28.90;41.00;;;;;;5000959;28;20405;-76
2022/05/15 15:42:54;;;;;;;0.60;0.60;;;28.60;41.90;;;;;;5000993;28;20452;-75
2022/05/15 15:45:20;;;;;;;0.70;0.70;;;28.50;41.50;;;;;;4998794;28;20469;-76
2022/05/15 15:47:50;;;;;;;0.70;0.60;;;28.00;41.80;;;;;;5002318;28;20445;-76
2022/05/15 15:50:18;;;;;;;0.70;0.60;;;27.80;42.10;;;;;;5005074;28;21023;-76
2022/05/15 15:52:45;;;;;;;1.00;0.50;;;27.80;42.50;;;;;;5006043;28;20449;-77
2022/05/15 15:55:12;;;;;;;0.60;0.50;;;27.90;43.60;;;;;;5005043;28;20492;-77
2022/05/15 15:57:41;;;;;;;0.70;0.60;;;27.80;42.10;;;;;;5006993;28;20541;-77
2022/05/15 16:00:10;;;;;;;0.70;0.60;;;28.00;43.20;;;;;;5003206;28;20459;-76
2022/05/15 16:02:40;;;;;;;0.70;0.53;;;28.00;42.30;;;;;;5003358;28;20452;-74
2022/05/15 16:05:09;;;;;;;0.60;0.60;;;27.70;42.50;;;;;;4997338;28;20464;-74
2022/05/15 16:07:36;;;;;;;0.70;0.60;;;27.30;43.00;;;;;;4997333;28;20452;-75
2022/05/15 16:10:03;;;;;;;0.60;0.50;;;27.10;43.70;;;;;;4997262;28;20489;-75
2022/05/15 16:12:30;;;;;;;0.70;0.60;;;27.30;44.10;;;;;;4997325;28;20935;-75
2022/05/15 16:14:57;;;;;;;0.60;0.50;;;27.20;43.20;;;;;;4998087;28;20460;-78
2022/05/15 16:17:24;;;;;;;0.60;0.50;;;27.10;43.00;;;;;;4996976;28;20572;-73
2022/05/15 16:19:51;;;;;;;0.90;0.70;;;27.30;43.40;;;;;;4997043;28;20449;-74
2022/05/15 16:22:20;;;;;;;0.70;0.60;;;27.30;43.50;;;;;;4997253;28;20871;-70
2022/05/15 16:24:48;;;;;;;0.60;0.50;;;27.30;43.40;;;;;;4997368;28;20453;-76
2022/05/15 16:27:19;;;;;;;0.60;0.60;;;27.10;43.80;;;;;;4996853;28;20465;-74
2022/05/15 16:29:53;;;;;;;0.60;0.60;;;27.10;43.70;;;;;;4996603;28;21038;-75
2022/05/15 16:32:22;;;;;;;0.70;0.60;;;27.00;44.50;;;;;;5005881;28;20445;-77
2022/05/15 16:34:49;;;;;;;1.20;0.60;;;27.00;43.50;;;;;;5008658;28;20449;-77
2022/05/15 16:37:16;;;;;;;0.60;0.50;;;26.90;44.20;;;;;;4999104;28;20523;-76
2022/05/15 16:39:44;;;;;;;0.70;0.60;;;26.90;43.30;;;;;;5000054;28;20453;-77
2022/05/15 16:42:18;;;;;;;0.70;0.60;;;27.10;43.80;;;;;;5001903;28;20449;-76
2022/05/15 16:44:45;;;;;;;0.70;0.60;;;27.10;43.30;;;;;;5003284;28;20910;-75